![]() |
EMODnet Physics ERDDAP
Easier access to scientific data |
log in|
Brought to you by EMODnet Physics |
| Dataset Title: | NDBC - Collection of dew point temperature (DEWT) TimeSeries - IN SITU MultiPointTimeSeriesObservation
|
| Institution: | NDBC (Dataset ID: TS_DEWT_NDBC) |
| Information: | Summary
| License
| FGDC
| ISO 19115
| Metadata
| Background
| Subset
| Data Access Form
| Make a graph
|
| Name | Last modified | Size | Description | |
|---|---|---|---|---|
| Parent Directory | - | - | ||
| MRHO1_TS_DEWT_012015.nc | 19-Dec-2024 17:10 | 429409 | ||
| MRHO1_TS_DEWT_012016.nc | 19-Dec-2024 17:16 | 429213 | ||
| MRHO1_TS_DEWT_012017.nc | 19-Dec-2024 17:23 | 450301 | ||
| MRHO1_TS_DEWT_012018.nc | 19-Dec-2024 17:31 | 449490 | ||
| MRHO1_TS_DEWT_012019.nc | 19-Dec-2024 17:39 | 446276 | ||
| MRHO1_TS_DEWT_012020.nc | 19-Dec-2024 17:48 | 449544 | ||
| MRHO1_TS_DEWT_012021.nc | 19-Dec-2024 17:55 | 449940 | ||
| MRHO1_TS_DEWT_012022.nc | 19-Dec-2024 18:05 | 448846 | ||
| MRHO1_TS_DEWT_012023.nc | 19-Dec-2024 18:13 | 4021284 | ||
| MRHO1_TS_DEWT_012025.nc | 07-Feb-2025 11:05 | 451067 | ||
| MRHO1_TS_DEWT_012026.nc | 02-Feb-2026 17:17 | 452771 | ||
| MRHO1_TS_DEWT_022015.nc | 19-Dec-2024 17:10 | 451336 | ||
| MRHO1_TS_DEWT_022016.nc | 19-Dec-2024 17:17 | 451821 | ||
| MRHO1_TS_DEWT_022017.nc | 19-Dec-2024 17:24 | 451969 | ||
| MRHO1_TS_DEWT_022018.nc | 19-Dec-2024 17:32 | 429745 | ||
| MRHO1_TS_DEWT_022019.nc | 19-Dec-2024 17:39 | 429814 | ||
| MRHO1_TS_DEWT_022020.nc | 19-Dec-2024 17:48 | 429698 | ||
| MRHO1_TS_DEWT_022021.nc | 19-Dec-2024 17:56 | 428720 | ||
| MRHO1_TS_DEWT_022022.nc | 19-Dec-2024 18:05 | 429682 | ||
| MRHO1_TS_DEWT_022023.nc | 19-Dec-2024 18:13 | 451241 | ||
| MRHO1_TS_DEWT_022025.nc | 01-Mar-2025 05:55 | 451974 | ||
| MRHO1_TS_DEWT_022026.nc | 01-Mar-2026 06:14 | 449126 | ||
| MRHO1_TS_DEWT_032014.nc | 19-Dec-2024 17:06 | 451093 | ||
| MRHO1_TS_DEWT_032015.nc | 19-Dec-2024 17:11 | 448534 | ||
| MRHO1_TS_DEWT_032016.nc | 19-Dec-2024 17:17 | 450194 | ||
| MRHO1_TS_DEWT_032017.nc | 19-Dec-2024 17:25 | 448046 | ||
| MRHO1_TS_DEWT_032018.nc | 19-Dec-2024 17:33 | 4420409 | ||
| MRHO1_TS_DEWT_032019.nc | 19-Dec-2024 17:40 | 450842 | ||
| MRHO1_TS_DEWT_032020.nc | 19-Dec-2024 17:49 | 450515 | ||
| MRHO1_TS_DEWT_032021.nc | 19-Dec-2024 17:56 | 450966 | ||
| MRHO1_TS_DEWT_032022.nc | 19-Dec-2024 18:06 | 450982 | ||
| MRHO1_TS_DEWT_032023.nc | 19-Dec-2024 18:14 | 450057 | ||
| MRHO1_TS_DEWT_032025.nc | 02-Apr-2025 04:25 | 429493 | ||
| MRHO1_TS_DEWT_032026.nc | 25-Mar-2026 08:36 | 429199 | ||
| MRHO1_TS_DEWT_042014.nc | 19-Dec-2024 17:06 | 429401 | ||
| MRHO1_TS_DEWT_042015.nc | 19-Dec-2024 17:11 | 429137 | ||
| MRHO1_TS_DEWT_042016.nc | 19-Dec-2024 17:17 | 427564 | ||
| MRHO1_TS_DEWT_042017.nc | 19-Dec-2024 17:25 | 450144 | ||
| MRHO1_TS_DEWT_042018.nc | 19-Dec-2024 17:33 | 450297 | ||
| MRHO1_TS_DEWT_042019.nc | 19-Dec-2024 17:40 | 449716 | ||
| MRHO1_TS_DEWT_042020.nc | 19-Dec-2024 17:50 | 448881 | ||
| MRHO1_TS_DEWT_042021.nc | 19-Dec-2024 17:57 | 450127 | ||
| MRHO1_TS_DEWT_042022.nc | 19-Dec-2024 18:07 | 450561 | ||
| MRHO1_TS_DEWT_042023.nc | 19-Dec-2024 18:14 | 448380 | ||
| MRHO1_TS_DEWT_042025.nc | 01-May-2025 06:18 | 4162697 | ||
| MRHO1_TS_DEWT_052014.nc | 19-Dec-2024 17:07 | 449804 | ||
| MRHO1_TS_DEWT_052015.nc | 19-Dec-2024 17:12 | 451008 | ||
| MRHO1_TS_DEWT_052016.nc | 19-Dec-2024 17:18 | 452009 | ||
| MRHO1_TS_DEWT_052017.nc | 19-Dec-2024 17:26 | 450462 | ||
| MRHO1_TS_DEWT_052018.nc | 19-Dec-2024 17:34 | 450320 | ||
| MRHO1_TS_DEWT_052019.nc | 19-Dec-2024 17:41 | 445837 | ||
| MRHO1_TS_DEWT_052020.nc | 19-Dec-2024 17:51 | 429475 | ||
| MRHO1_TS_DEWT_052021.nc | 19-Dec-2024 17:58 | 429589 | ||
| MRHO1_TS_DEWT_052022.nc | 19-Dec-2024 18:08 | 429811 | ||
| MRHO1_TS_DEWT_052023.nc | 19-Dec-2024 18:15 | 420410 | ||
| MRHO1_TS_DEWT_052025.nc | 01-Jun-2025 08:37 | 450074 | ||
| MRHO1_TS_DEWT_062015.nc | 19-Dec-2024 17:12 | 449335 | ||
| MRHO1_TS_DEWT_062016.nc | 19-Dec-2024 17:18 | 449836 | ||
| MRHO1_TS_DEWT_062017.nc | 19-Dec-2024 17:27 | 450278 | ||
| MRHO1_TS_DEWT_062018.nc | 19-Dec-2024 17:34 | 450451 | ||
| MRHO1_TS_DEWT_062019.nc | 19-Dec-2024 17:41 | 449469 | ||
| MRHO1_TS_DEWT_062020.nc | 19-Dec-2024 17:51 | 451883 | ||
| MRHO1_TS_DEWT_062021.nc | 19-Dec-2024 17:59 | 3635924 | ||
| MRHO1_TS_DEWT_062022.nc | 19-Dec-2024 18:08 | 450904 | ||
| MRHO1_TS_DEWT_062023.nc | 19-Dec-2024 18:16 | 449961 | ||
| MRHO1_TS_DEWT_062025.nc | 01-Jul-2025 05:56 | 447933 | ||
| MRHO1_TS_DEWT_072015.nc | 19-Dec-2024 17:13 | 449995 | ||
| MRHO1_TS_DEWT_072016.nc | 19-Dec-2024 17:19 | 448977 | ||
| MRHO1_TS_DEWT_072017.nc | 19-Dec-2024 17:27 | 452445 | ||
| MRHO1_TS_DEWT_072018.nc | 19-Dec-2024 17:35 | 429448 | ||
| MRHO1_TS_DEWT_072019.nc | 19-Dec-2024 17:42 | 429841 | ||
| MRHO1_TS_DEWT_072020.nc | 19-Dec-2024 17:52 | 429837 | ||
| MRHO1_TS_DEWT_072021.nc | 19-Dec-2024 17:59 | 446124 | ||
| MRHO1_TS_DEWT_072022.nc | 19-Dec-2024 18:09 | 448993 | ||
| MRHO1_TS_DEWT_072023.nc | 19-Dec-2024 18:17 | 436185 | ||
| MRHO1_TS_DEWT_072025.nc | 01-Aug-2025 06:05 | 450792 | ||
| MRHO1_TS_DEWT_082015.nc | 19-Dec-2024 17:13 | 450254 | ||
| MRHO1_TS_DEWT_082016.nc | 19-Dec-2024 17:19 | 450640 | ||
| MRHO1_TS_DEWT_082017.nc | 19-Dec-2024 17:28 | 450990 | ||
| MRHO1_TS_DEWT_082018.nc | 19-Dec-2024 17:36 | 450671 | ||
| MRHO1_TS_DEWT_082019.nc | 19-Dec-2024 17:43 | 4066259 | ||
| MRHO1_TS_DEWT_082020.nc | 19-Dec-2024 17:53 | 448341 | ||
| MRHO1_TS_DEWT_082021.nc | 19-Dec-2024 18:01 | 449852 | ||
| MRHO1_TS_DEWT_082022.nc | 19-Dec-2024 18:10 | 449405 | ||
| MRHO1_TS_DEWT_082023.nc | 19-Dec-2024 18:18 | 449037 | ||
| MRHO1_TS_DEWT_082025.nc | 01-Sep-2025 07:34 | 450196 | ||
| MRHO1_TS_DEWT_092015.nc | 19-Dec-2024 17:14 | 448696 | ||
| MRHO1_TS_DEWT_092016.nc | 19-Dec-2024 17:20 | 429417 | ||
| MRHO1_TS_DEWT_092017.nc | 19-Dec-2024 17:29 | 429494 | ||
| MRHO1_TS_DEWT_092018.nc | 19-Dec-2024 17:36 | 429497 | ||
| MRHO1_TS_DEWT_092019.nc | 19-Dec-2024 17:44 | 448559 | ||
| MRHO1_TS_DEWT_092020.nc | 19-Dec-2024 17:53 | 448714 | ||
| MRHO1_TS_DEWT_092021.nc | 19-Dec-2024 18:01 | 441018 | ||
| MRHO1_TS_DEWT_092022.nc | 19-Dec-2024 18:10 | 448473 | ||
| MRHO1_TS_DEWT_092023.nc | 19-Dec-2024 18:19 | 449506 | ||
| MRHO1_TS_DEWT_092025.nc | 01-Oct-2025 07:53 | 450004 | ||
| MRHO1_TS_DEWT_102014.nc | 19-Dec-2024 17:09 | 447540 | ||
| MRHO1_TS_DEWT_102015.nc | 19-Dec-2024 17:15 | 449068 | ||
| MRHO1_TS_DEWT_102016.nc | 19-Dec-2024 17:21 | 3794773 | ||
| MRHO1_TS_DEWT_102017.nc | 19-Dec-2024 17:29 | 435432 | ||
| MRHO1_TS_DEWT_102018.nc | 19-Dec-2024 17:37 | 450079 | ||
| MRHO1_TS_DEWT_102019.nc | 19-Dec-2024 17:45 | 451101 | ||
| MRHO1_TS_DEWT_102020.nc | 19-Dec-2024 17:54 | 451178 | ||
| MRHO1_TS_DEWT_102021.nc | 19-Dec-2024 18:02 | 450080 | ||
| MRHO1_TS_DEWT_102022.nc | 19-Dec-2024 18:11 | 450797 | ||
| MRHO1_TS_DEWT_102023.nc | 19-Dec-2024 18:20 | 451914 | ||
| MRHO1_TS_DEWT_102025.nc | 01-Nov-2025 07:01 | 429633 | ||
| MRHO1_TS_DEWT_112014.nc | 19-Dec-2024 17:09 | 429817 | ||
| MRHO1_TS_DEWT_112015.nc | 19-Dec-2024 17:15 | 429531 | ||
| MRHO1_TS_DEWT_112016.nc | 19-Dec-2024 17:21 | 449730 | ||
| MRHO1_TS_DEWT_112017.nc | 19-Dec-2024 17:30 | 449903 | ||
| MRHO1_TS_DEWT_112018.nc | 19-Dec-2024 17:37 | 450439 | ||
| MRHO1_TS_DEWT_112019.nc | 19-Dec-2024 17:46 | 450227 | ||
| MRHO1_TS_DEWT_112020.nc | 19-Dec-2024 17:54 | 448432 | ||
| MRHO1_TS_DEWT_112021.nc | 19-Dec-2024 18:03 | 446383 | ||
| MRHO1_TS_DEWT_112022.nc | 19-Dec-2024 18:11 | 451023 | ||
| MRHO1_TS_DEWT_112023.nc | 19-Dec-2024 18:21 | 444829 | ||
| MRHO1_TS_DEWT_112024.nc | 17-Jan-2025 18:56 | 492446 | ||
| MRHO1_TS_DEWT_112025.nc | 01-Dec-2025 10:48 | 4415203 | ||
| MRHO1_TS_DEWT_122014.nc | 19-Dec-2024 17:09 | 447638 | ||
| MRHO1_TS_DEWT_122015.nc | 19-Dec-2024 17:16 | 450760 | ||
| MRHO1_TS_DEWT_122016.nc | 19-Dec-2024 17:22 | 450927 | ||
| MRHO1_TS_DEWT_122017.nc | 19-Dec-2024 17:31 | 451271 | ||
| MRHO1_TS_DEWT_122018.nc | 19-Dec-2024 17:38 | 449757 | ||
| MRHO1_TS_DEWT_122019.nc | 19-Dec-2024 17:47 | 450393 | ||
| MRHO1_TS_DEWT_122020.nc | 19-Dec-2024 17:55 | 451020 | ||
| MRHO1_TS_DEWT_122021.nc | 19-Dec-2024 18:04 | 428657 | ||
| MRHO1_TS_DEWT_122022.nc | 19-Dec-2024 18:12 | 429494 | ||
| MRHO1_TS_DEWT_122023.nc | 19-Dec-2024 18:21 | 429268 | ||
| MRHO1_TS_DEWT_122024.nc | 22-Jan-2025 19:13 | 440843 | ||
| MRHO1_TS_DEWT_122025.nc | 01-Jan-2026 05:13 | 448484 | ||